Hills and Dales, Indiana
Current Conditions -  °F | °C
As of 5:53 PM on Saturday 22 Nov 2014 (Local Time) from KMIE Reporting Station
Overcast Overcast  
Wind Chill: 53°   Ceiling: 4800
Heat Index: 53°   Visibility: 10mi
Dew Point: 41°   Wind: 12mph
Humidity: 64%   Direction: 210°SSW
Pressure: 30.02"   Gusts: NA
Location:  40.15°N, 85.2628°W
Report Text: KMIE 222253Z 21010KT 10SM BKN048 OVC065 12/05 A3002 RMK AO2 SLP165 T01170050
Loading
Personal Weather Stations






























Interactive Weather Map New forecast layout! Learn more

10-Day Weather Forecast

Advertisements
Track Severe Weather on mobile